Strona główna
METAR-TAF:

METAR-TAF

Lotnisko :

Port lotniczy Siem Reap

Siem Reap, Kambodża

Szerokość geograficzna: 13-22N, Długość geograficzna: 103-51E, wysokość: 15 m

Aktualna obserwacja pogody

Raport powstał 33 minut temu, godzina 18:30 UTC
Wiatr 5 kt od północ
Temperatura 24°C
Wilgotność 78%
Ciśnienie 1012 hPa
Widzialność: 9000 m
Rozproszone chmury na wysokości 1500 ft

METAR: VDSR 171830Z 36005KT 9000 SCT015 24/20 Q1012

czas: 02:03 (19:03 UTC)

Prognoza

Raport powstał 2 godziny i 3 minut temu, godzina 17:00 UTC
Prognoza ważna od 17 godzina 18 UTC do 18 godzina 12 UTC
Wiatr 8 kt od wschodnio-północny wschód
Widzialność 10 km lub więcej
Rozproszone chmury na wysokości 1700 ft

TAF: VDSR 171700Z 1718/1812 07008KT 9999 SCT017

Obserwacja i prognoza pogody dla ponad 4000 lotnisk (raport METAR i TAF).

Dostępne stacje oznaczono żółtymi i czerwonymi punktami na mapie.

Najedź kursorem aby zobaczyć nazwę stacji.

Kliknij aby zobaczyć obserwacje i prognozy pogody.

Aby zmienić mapę: kliknij na zielony przycisk z czarnym krzyżykiem, aby powiększyć; na zielony przycisk z myślnikiem, aby pomniejszyć; na zielone strzałki, aby przejść do map sąsiednich.


METAR-TAF: